sensor_id;sensor_type;location;lat;lon;timestamp;pressure;altitude;pressure_sealevel;temperature;humidity
14612;BME280;7392;52.078;11.650;2023-03-05T00:01:29;101001.97;;;1.32;74.21
14612;BME280;7392;52.078;11.650;2023-03-05T00:03:59;100987.09;;;1.30;74.83
14612;BME280;7392;52.078;11.650;2023-03-05T00:06:31;100986.28;;;1.32;75.31
14612;BME280;7392;52.078;11.650;2023-03-05T00:09:07;100984.53;;;1.32;75.36
14612;BME280;7392;52.078;11.650;2023-03-05T00:11:39;100981.94;;;1.32;75.83
14612;BME280;7392;52.078;11.650;2023-03-05T00:14:09;100976.69;;;1.32;75.46
14612;BME280;7392;52.078;11.650;2023-03-05T00:16:43;100968.91;;;1.34;75.87
14612;BME280;7392;52.078;11.650;2023-03-05T00:19:11;100971.59;;;1.35;76.27
14612;BME280;7392;52.078;11.650;2023-03-05T00:21:43;100986.38;;;1.35;75.79
14612;BME280;7392;52.078;11.650;2023-03-05T00:24:15;100968.97;;;1.35;76.33
14612;BME280;7392;52.078;11.650;2023-03-05T00:26:44;100974.25;;;1.37;76.62
14612;BME280;7392;52.078;11.650;2023-03-05T00:29:16;100962.06;;;1.37;76.73
14612;BME280;7392;52.078;11.650;2023-03-05T00:31:44;100959.44;;;1.37;77.30
14612;BME280;7392;52.078;11.650;2023-03-05T00:34:14;100955.09;;;1.38;77.94
14612;BME280;7392;52.078;11.650;2023-03-05T00:36:45;100961.19;;;1.37;78.03
14612;BME280;7392;52.078;11.650;2023-03-05T00:39:14;100953.34;;;1.38;78.34
14612;BME280;7392;52.078;11.650;2023-03-05T00:41:43;100956.88;;;1.39;78.34
14612;BME280;7392;52.078;11.650;2023-03-05T00:44:11;100954.22;;;1.37;78.57
14612;BME280;7392;52.078;11.650;2023-03-05T00:46:40;100955.97;;;1.38;78.61
14612;BME280;7392;52.078;11.650;2023-03-05T00:49:08;100953.31;;;1.37;78.95
14612;BME280;7392;52.078;11.650;2023-03-05T00:51:36;100948.09;;;1.37;79.26
14612;BME280;7392;52.078;11.650;2023-03-05T00:54:04;100941.06;;;1.36;79.29
14612;BME280;7392;52.078;11.650;2023-03-05T00:56:33;100932.38;;;1.37;79.73
14612;BME280;7392;52.078;11.650;2023-03-05T00:59:01;100942.00;;;1.38;79.68
14612;BME280;7392;52.078;11.650;2023-03-05T01:01:29;100937.63;;;1.37;79.82
14612;BME280;7392;52.078;11.650;2023-03-05T01:03:58;100935.94;;;1.39;79.82
14612;BME280;7392;52.078;11.650;2023-03-05T01:06:27;100938.50;;;1.37;80.41
14612;BME280;7392;52.078;11.650;2023-03-05T01:08:55;100928.03;;;1.37;80.36
14612;BME280;7392;52.078;11.650;2023-03-05T01:11:23;100928.91;;;1.38;81.18
14612;BME280;7392;52.078;11.650;2023-03-05T01:13:50;100920.19;;;1.37;81.64
14612;BME280;7392;52.078;11.650;2023-03-05T01:16:18;100925.41;;;1.37;82.01
14612;BME280;7392;52.078;11.650;2023-03-05T01:18:46;100923.56;;;1.35;82.95
14612;BME280;7392;52.078;11.650;2023-03-05T01:21:15;100914.88;;;1.36;83.18
14612;BME280;7392;52.078;11.650;2023-03-05T01:23:43;100918.31;;;1.35;84.14
14612;BME280;7392;52.078;11.650;2023-03-05T01:26:11;100914.75;;;1.33;84.93
14612;BME280;7392;52.078;11.650;2023-03-05T01:28:39;100912.13;;;1.33;85.46
14612;BME280;7392;52.078;11.650;2023-03-05T01:31:08;100918.25;;;1.33;86.45
14612;BME280;7392;52.078;11.650;2023-03-05T01:33:37;100905.16;;;1.32;87.46
14612;BME280;7392;52.078;11.650;2023-03-05T01:36:06;100908.56;;;1.30;89.79
14612;BME280;7392;52.078;11.650;2023-03-05T01:38:39;100904.09;;;1.28;91.70
14612;BME280;7392;52.078;11.650;2023-03-05T01:41:07;100899.59;;;1.24;93.52
14612;BME280;7392;52.078;11.650;2023-03-05T01:43:35;100894.25;;;1.21;94.93
14612;BME280;7392;52.078;11.650;2023-03-05T01:46:25;100895.03;;;1.18;95.97
14612;BME280;7392;52.078;11.650;2023-03-05T01:48:57;100897.59;;;1.17;97.23
14612;BME280;7392;52.078;11.650;2023-03-05T01:51:31;100887.88;;;1.14;97.88
14612;BME280;7392;52.078;11.650;2023-03-05T01:54:03;100887.00;;;1.14;98.78
14612;BME280;7392;52.078;11.650;2023-03-05T01:56:33;100875.59;;;1.11;99.58
14612;BME280;7392;52.078;11.650;2023-03-05T01:59:01;100876.47;;;1.12;100.00
14612;BME280;7392;52.078;11.650;2023-03-05T02:01:32;100870.28;;;1.10;100.00
14612;BME280;7392;52.078;11.650;2023-03-05T02:04:03;100869.34;;;1.08;100.00
14612;BME280;7392;52.078;11.650;2023-03-05T02:06:31;100866.66;;;1.06;100.00
14612;BME280;7392;52.078;11.650;2023-03-05T02:09:01;100857.88;;;1.04;100.00
14612;BME280;7392;52.078;11.650;2023-03-05T02:11:29;100853.47;;;1.03;100.00
14612;BME280;7392;52.078;11.650;2023-03-05T02:13:57;100855.19;;;1.03;100.00
14612;BME280;7392;52.078;11.650;2023-03-05T02:16:25;100848.16;;;1.02;100.00
14612;BME280;7392;52.078;11.650;2023-03-05T02:18:53;100848.09;;;1.00;100.00
14612;BME280;7392;52.078;11.650;2023-03-05T02:21:35;100850.66;;;0.99;100.00
14612;BME280;7392;52.078;11.650;2023-03-05T02:24:04;100847.16;;;0.98;100.00
14612;BME280;7392;52.078;11.650;2023-03-05T02:26:31;100843.59;;;0.96;100.00
14612;BME280;7392;52.078;11.650;2023-03-05T02:29:00;100835.75;;;0.96;100.00
14612;BME280;7392;52.078;11.650;2023-03-05T02:31:30;100833.91;;;0.93;100.00
14612;BME280;7392;52.078;11.650;2023-03-05T02:33:58;100833.03;;;0.93;100.00
14612;BME280;7392;52.078;11.650;2023-03-05T02:36:27;100834.75;;;0.92;100.00
14612;BME280;7392;52.078;11.650;2023-03-05T02:38:55;100829.53;;;0.92;100.00
14612;BME280;7392;52.078;11.650;2023-03-05T02:41:25;100827.72;;;0.91;100.00
14612;BME280;7392;52.078;11.650;2023-03-05T02:43:55;100826.78;;;0.89;100.00
14612;BME280;7392;52.078;11.650;2023-03-05T02:46:23;100827.59;;;0.88;100.00
14612;BME280;7392;52.078;11.650;2023-03-05T02:48:51;100831.94;;;0.88;100.00
14612;BME280;7392;52.078;11.650;2023-03-05T02:51:19;100829.28;;;0.86;100.00
14612;BME280;7392;52.078;11.650;2023-03-05T02:53:49;100827.53;;;0.87;100.00
14612;BME280;7392;52.078;11.650;2023-03-05T02:56:17;100817.88;;;0.84;100.00
14612;BME280;7392;52.078;11.650;2023-03-05T02:58:44;100813.53;;;0.85;100.00
14612;BME280;7392;52.078;11.650;2023-03-05T03:01:12;100817.88;;;0.84;100.00
14612;BME280;7392;52.078;11.650;2023-03-05T03:03:40;100819.63;;;0.85;100.00
14612;BME280;7392;52.078;11.650;2023-03-05T03:06:08;100824.84;;;0.84;100.00
14612;BME280;7392;52.078;11.650;2023-03-05T03:08:36;100820.44;;;0.83;100.00
14612;BME280;7392;52.078;11.650;2023-03-05T03:11:07;100818.81;;;0.86;100.00
14612;BME280;7392;52.078;11.650;2023-03-05T03:13:36;100812.69;;;0.86;100.00
14612;BME280;7392;52.078;11.650;2023-03-05T03:16:07;100806.53;;;0.84;100.00
14612;BME280;7392;52.078;11.650;2023-03-05T03:18:37;100809.16;;;0.84;100.00
14612;BME280;7392;52.078;11.650;2023-03-05T03:21:06;100807.41;;;0.84;100.00
14612;BME280;7392;52.078;11.650;2023-03-05T03:23:33;100809.16;;;0.85;100.00
14612;BME280;7392;52.078;11.650;2023-03-05T03:26:01;100805.69;;;0.85;100.00
14612;BME280;7392;52.078;11.650;2023-03-05T03:28:31;100810.09;;;0.86;100.00
14612;BME280;7392;52.078;11.650;2023-03-05T03:30:58;100800.44;;;0.85;100.00
14612;BME280;7392;52.078;11.650;2023-03-05T03:33:26;100806.56;;;0.85;100.00
14612;BME280;7392;52.078;11.650;2023-03-05T03:35:54;100800.44;;;0.85;100.00
14612;BME280;7392;52.078;11.650;2023-03-05T03:38:22;100794.28;;;0.83;100.00
14612;BME280;7392;52.078;11.650;2023-03-05T03:40:50;100788.97;;;0.81;100.00
14612;BME280;7392;52.078;11.650;2023-03-05T03:43:17;100786.31;;;0.80;100.00
14612;BME280;7392;52.078;11.650;2023-03-05T03:45:46;100781.06;;;0.80;100.00
14612;BME280;7392;52.078;11.650;2023-03-05T03:48:14;100780.94;;;0.77;100.00
14612;BME280;7392;52.078;11.650;2023-03-05T03:50:47;100777.47;;;0.76;100.00
14612;BME280;7392;52.078;11.650;2023-03-05T03:53:14;100776.56;;;0.76;100.00
14612;BME280;7392;52.078;11.650;2023-03-05T03:55:42;100772.22;;;0.76;100.00
14612;BME280;7392;52.078;11.650;2023-03-05T03:58:12;100760.81;;;0.74;100.00
14612;BME280;7392;52.078;11.650;2023-03-05T04:00:40;100764.31;;;0.74;100.00
14612;BME280;7392;52.078;11.650;2023-03-05T04:03:09;100765.16;;;0.73;100.00
14612;BME280;7392;52.078;11.650;2023-03-05T04:05:37;100755.59;;;0.74;100.00
14612;BME280;7392;52.078;11.650;2023-03-05T04:08:05;100747.75;;;0.74;100.00
14612;BME280;7392;52.078;11.650;2023-03-05T04:10:37;100759.97;;;0.75;100.00
14612;BME280;7392;52.078;11.650;2023-03-05T04:13:05;100747.75;;;0.74;100.00
14612;BME280;7392;52.078;11.650;2023-03-05T04:15:33;100746.00;;;0.74;100.00
14612;BME280;7392;52.078;11.650;2023-03-05T04:18:01;100746.91;;;0.75;100.00
14612;BME280;7392;52.078;11.650;2023-03-05T04:20:30;100746.00;;;0.74;100.00
14612;BME280;7392;52.078;11.650;2023-03-05T04:22:57;100743.41;;;0.74;100.00
14612;BME280;7392;52.078;11.650;2023-03-05T04:25:25;100741.66;;;0.75;100.00
14612;BME280;7392;52.078;11.650;2023-03-05T04:27:54;100735.63;;;0.76;100.00
14612;BME280;7392;52.078;11.650;2023-03-05T04:30:21;100740.03;;;0.77;100.00
14612;BME280;7392;52.078;11.650;2023-03-05T04:32:49;100741.78;;;0.78;100.00
14612;BME280;7392;52.078;11.650;2023-03-05T04:35:17;100733.06;;;0.78;100.00
14612;BME280;7392;52.078;11.650;2023-03-05T04:37:46;100728.72;;;0.78;100.00
14612;BME280;7392;52.078;11.650;2023-03-05T04:40:15;100727.00;;;0.79;100.00
14612;BME280;7392;52.078;11.650;2023-03-05T04:42:43;100725.22;;;0.78;100.00
14612;BME280;7392;52.078;11.650;2023-03-05T04:45:12;100724.41;;;0.79;100.00
14612;BME280;7392;52.078;11.650;2023-03-05T04:47:43;100729.72;;;0.82;100.00
14612;BME280;7392;52.078;11.650;2023-03-05T04:50:12;100720.16;;;0.82;100.00
14612;BME280;7392;52.078;11.650;2023-03-05T04:52:40;100725.41;;;0.82;100.00
14612;BME280;7392;52.078;11.650;2023-03-05T04:55:12;100717.56;;;0.82;100.00
14612;BME280;7392;52.078;11.650;2023-03-05T04:57:40;100713.19;;;0.83;100.00
14612;BME280;7392;52.078;11.650;2023-03-05T05:00:12;100705.34;;;0.83;100.00
14612;BME280;7392;52.078;11.650;2023-03-05T05:02:40;100710.59;;;0.83;100.00
14612;BME280;7392;52.078;11.650;2023-03-05T05:05:09;100694.06;;;0.84;100.00
14612;BME280;7392;52.078;11.650;2023-03-05T05:07:39;100699.31;;;0.84;100.00
14612;BME280;7392;52.078;11.650;2023-03-05T05:10:08;100702.78;;;0.84;100.00
14612;BME280;7392;52.078;11.650;2023-03-05T05:12:38;100702.84;;;0.86;100.00
14612;BME280;7392;52.078;11.650;2023-03-05T05:15:07;100695.84;;;0.85;100.00
14612;BME280;7392;52.078;11.650;2023-03-05T05:17:35;100691.47;;;0.85;100.00
14612;BME280;7392;52.078;11.650;2023-03-05T05:20:05;100691.53;;;0.87;100.00
14612;BME280;7392;52.078;11.650;2023-03-05T05:22:33;100688.03;;;0.86;100.00
14612;BME280;7392;52.078;11.650;2023-03-05T05:25:03;100686.31;;;0.87;100.00
14612;BME280;7392;52.078;11.650;2023-03-05T05:27:31;100685.44;;;0.86;100.00
14612;BME280;7392;52.078;11.650;2023-03-05T05:30:00;100688.88;;;0.85;100.00
14612;BME280;7392;52.078;11.650;2023-03-05T05:32:28;100687.16;;;0.86;100.00
14612;BME280;7392;52.078;11.650;2023-03-05T05:34:56;100687.22;;;0.87;100.00
14612;BME280;7392;52.078;11.650;2023-03-05T05:37:25;100681.94;;;0.86;100.00
14612;BME280;7392;52.078;11.650;2023-03-05T05:39:53;100688.00;;;0.85;100.00
14612;BME280;7392;52.078;11.650;2023-03-05T05:42:23;100685.38;;;0.85;100.00
14612;BME280;7392;52.078;11.650;2023-03-05T05:44:51;100684.56;;;0.86;100.00
14612;BME280;7392;52.078;11.650;2023-03-05T05:47:24;100681.88;;;0.84;100.00
14612;BME280;7392;52.078;11.650;2023-03-05T05:49:53;100688.84;;;0.84;100.00
14612;BME280;7392;52.078;11.650;2023-03-05T05:52:21;100688.84;;;0.84;100.00
14612;BME280;7392;52.078;11.650;2023-03-05T05:54:49;100688.84;;;0.84;100.00
14612;BME280;7392;52.078;11.650;2023-03-05T05:57:18;100684.38;;;0.81;100.00
14612;BME280;7392;52.078;11.650;2023-03-05T05:59:46;100679.88;;;0.77;100.00
14612;BME280;7392;52.078;11.650;2023-03-05T06:02:13;100685.06;;;0.76;100.00
14612;BME280;7392;52.078;11.650;2023-03-05T06:04:43;100685.06;;;0.76;100.00
14612;BME280;7392;52.078;11.650;2023-03-05T06:07:10;100680.59;;;0.73;100.00
14612;BME280;7392;52.078;11.650;2023-03-05T06:09:38;100684.94;;;0.72;100.00
14612;BME280;7392;52.078;11.650;2023-03-05T06:12:06;100682.25;;;0.71;100.00
14612;BME280;7392;52.078;11.650;2023-03-05T06:14:34;100686.59;;;0.70;100.00
14612;BME280;7392;52.078;11.650;2023-03-05T06:17:02;100687.44;;;0.69;100.00
14612;BME280;7392;52.078;11.650;2023-03-05T06:19:30;100684.75;;;0.68;100.00
14612;BME280;7392;52.078;11.650;2023-03-05T06:21:59;100676.91;;;0.68;100.00
14612;BME280;7392;52.078;11.650;2023-03-05T06:24:27;100676.91;;;0.68;100.00
14612;BME280;7392;52.078;11.650;2023-03-05T06:26:55;100680.47;;;0.70;100.00
14612;BME280;7392;52.078;11.650;2023-03-05T06:29:23;100679.59;;;0.69;100.00
14612;BME280;7392;52.078;11.650;2023-03-05T06:31:51;100676.22;;;0.72;100.00
14612;BME280;7392;52.078;11.650;2023-03-05T06:34:19;100680.66;;;0.74;100.00
14612;BME280;7392;52.078;11.650;2023-03-05T06:36:47;100680.69;;;0.76;100.00
14612;BME280;7392;52.078;11.650;2023-03-05T06:39:16;100677.31;;;0.79;100.00
14612;BME280;7392;52.078;11.650;2023-03-05T06:41:44;100685.19;;;0.80;100.00
14612;BME280;7392;52.078;11.650;2023-03-05T06:44:12;100692.28;;;0.83;100.00
14612;BME280;7392;52.078;11.650;2023-03-05T06:46:39;100683.63;;;0.85;100.00
14612;BME280;7392;52.078;11.650;2023-03-05T06:49:09;100687.22;;;0.87;100.00
14612;BME280;7392;52.078;11.650;2023-03-05T06:51:39;100678.59;;;0.90;100.00
14612;BME280;7392;52.078;11.650;2023-03-05T06:54:12;100678.69;;;0.93;100.00
14612;BME280;7392;52.078;11.650;2023-03-05T06:56:44;100674.47;;;0.97;100.00
14612;BME280;7392;52.078;11.650;2023-03-05T06:59:14;100680.63;;;0.99;100.00
14612;BME280;7392;52.078;11.650;2023-03-05T07:01:42;100684.16;;;0.99;100.00
14612;BME280;7392;52.078;11.650;2023-03-05T07:04:11;100683.41;;;1.03;100.00
14612;BME280;7392;52.078;11.650;2023-03-05T07:06:40;100680.94;;;1.06;100.00
14612;BME280;7392;52.078;11.650;2023-03-05T07:09:10;100687.09;;;1.08;100.00
14612;BME280;7392;52.078;11.650;2023-03-05T07:11:39;100688.09;;;1.12;100.00
14612;BME280;7392;52.078;11.650;2023-03-05T07:14:08;100683.84;;;1.16;100.00
14612;BME280;7392;52.078;11.650;2023-03-05T07:16:36;100691.00;;;1.20;100.00
14612;BME280;7392;52.078;11.650;2023-03-05T07:19:05;100688.44;;;1.23;100.00
14612;BME280;7392;52.078;11.650;2023-03-05T07:21:34;100696.47;;;1.27;100.00
14612;BME280;7392;52.078;11.650;2023-03-05T07:24:06;100687.94;;;1.33;100.00
14612;BME280;7392;52.078;11.650;2023-03-05T07:26:37;100688.09;;;1.38;100.00
14612;BME280;7392;52.078;11.650;2023-03-05T07:29:07;100688.25;;;1.42;100.00
14612;BME280;7392;52.078;11.650;2023-03-05T07:31:49;100694.59;;;1.49;100.00
14612;BME280;7392;52.078;11.650;2023-03-05T07:34:23;100687.75;;;1.53;100.00
14612;BME280;7392;52.078;11.650;2023-03-05T07:36:53;100684.38;;;1.57;100.00
14612;BME280;7392;52.078;11.650;2023-03-05T07:39:24;100684.53;;;1.61;100.00
14612;BME280;7392;52.078;11.650;2023-03-05T07:41:57;100685.47;;;1.63;100.00
14612;BME280;7392;52.078;11.650;2023-03-05T07:44:41;100687.38;;;1.67;100.00
14612;BME280;7392;52.078;11.650;2023-03-05T07:47:23;100679.53;;;1.69;100.00
14612;BME280;7392;52.078;11.650;2023-03-05T07:49:57;100676.91;;;1.69;100.00
14612;BME280;7392;52.078;11.650;2023-03-05T07:52:25;100671.66;;;1.69;100.00
14612;BME280;7392;52.078;11.650;2023-03-05T07:54:55;100676.13;;;1.72;100.00
14612;BME280;7392;52.078;11.650;2023-03-05T07:57:23;100677.00;;;1.72;100.00
14612;BME280;7392;52.078;11.650;2023-03-05T08:00:03;100674.44;;;1.74;100.00
14612;BME280;7392;52.078;11.650;2023-03-05T08:02:40;100671.06;;;1.76;100.00
14612;BME280;7392;52.078;11.650;2023-03-05T08:05:08;100666.75;;;1.78;100.00
14612;BME280;7392;52.078;11.650;2023-03-05T08:07:36;100675.50;;;1.79;100.00
14612;BME280;7392;52.078;11.650;2023-03-05T08:10:06;100675.50;;;1.79;100.00
14612;BME280;7392;52.078;11.650;2023-03-05T08:12:38;100663.28;;;1.79;100.00
14612;BME280;7392;52.078;11.650;2023-03-05T08:15:07;100676.34;;;1.78;100.00
14612;BME280;7392;52.078;11.650;2023-03-05T08:17:35;100668.50;;;1.78;100.00
14612;BME280;7392;52.078;11.650;2023-03-05T08:20:05;100669.31;;;1.77;100.00
14612;BME280;7392;52.078;11.650;2023-03-05T08:22:36;100664.91;;;1.76;100.00
14612;BME280;7392;52.078;11.650;2023-03-05T08:25:05;100664.03;;;1.75;100.00
14612;BME280;7392;52.078;11.650;2023-03-05T08:27:37;100662.25;;;1.74;100.00
14612;BME280;7392;52.078;11.650;2023-03-05T08:30:06;100656.88;;;1.70;100.00
14612;BME280;7392;52.078;11.650;2023-03-05T08:32:34;100661.19;;;1.69;100.00
14612;BME280;7392;52.078;11.650;2023-03-05T08:35:02;100656.66;;;1.63;100.00
14612;BME280;7392;52.078;11.650;2023-03-05T08:37:32;100659.34;;;1.65;100.00
14612;BME280;7392;52.078;11.650;2023-03-05T08:40:00;100661.03;;;1.63;100.00
14612;BME280;7392;52.078;11.650;2023-03-05T08:42:28;100651.47;;;1.65;100.00
14612;BME280;7392;52.078;11.650;2023-03-05T08:44:55;100662.06;;;1.68;100.00
14612;BME280;7392;52.078;11.650;2023-03-05T08:47:23;100649.78;;;1.67;100.00
14612;BME280;7392;52.078;11.650;2023-03-05T08:49:52;100648.97;;;1.68;100.00
14612;BME280;7392;52.078;11.650;2023-03-05T08:52:21;100642.91;;;1.71;100.00
14612;BME280;7392;52.078;11.650;2023-03-05T08:54:50;100637.78;;;1.74;100.00
14612;BME280;7392;52.078;11.650;2023-03-05T08:57:18;100637.94;;;1.78;100.00
14612;BME280;7392;52.078;11.650;2023-03-05T08:59:46;100626.75;;;1.84;100.00
14612;BME280;7392;52.078;11.650;2023-03-05T09:02:14;100638.31;;;1.91;100.00
14612;BME280;7392;52.078;11.650;2023-03-05T09:04:41;100628.00;;;1.95;100.00
14612;BME280;7392;52.078;11.650;2023-03-05T09:07:09;100622.00;;;1.99;100.00
14612;BME280;7392;52.078;11.650;2023-03-05T09:09:38;100629.13;;;2.03;100.00
14612;BME280;7392;52.078;11.650;2023-03-05T09:12:08;100624.88;;;2.07;100.00
14612;BME280;7392;52.078;11.650;2023-03-05T09:14:38;100623.28;;;2.12;100.00
14612;BME280;7392;52.078;11.650;2023-03-05T09:17:06;100626.00;;;2.15;100.00
14612;BME280;7392;52.078;11.650;2023-03-05T09:19:34;100606.97;;;2.22;100.00
14612;BME280;7392;52.078;11.650;2023-03-05T09:22:02;100609.03;;;2.33;100.00
14612;BME280;7392;52.078;11.650;2023-03-05T09:24:30;100598.06;;;2.46;100.00
14612;BME280;7392;52.078;11.650;2023-03-05T09:26:58;100590.53;;;2.58;100.00
14612;BME280;7392;52.078;11.650;2023-03-05T09:29:28;100589.16;;;2.73;100.00
14612;BME280;7392;52.078;11.650;2023-03-05T09:31:56;100588.50;;;2.81;100.00
14612;BME280;7392;52.078;11.650;2023-03-05T09:34:25;100586.84;;;2.85;100.00
14612;BME280;7392;52.078;11.650;2023-03-05T09:36:52;100600.94;;;2.87;100.00
14612;BME280;7392;52.078;11.650;2023-03-05T09:39:20;100605.31;;;2.88;100.00
14612;BME280;7392;52.078;11.650;2023-03-05T09:42:13;100604.34;;;2.85;100.00
14612;BME280;7392;52.078;11.650;2023-03-05T09:45:02;100598.94;;;2.78;100.00
14612;BME280;7392;52.078;11.650;2023-03-05T09:47:45;100604.97;;;2.76;100.00
14612;BME280;7392;52.078;11.650;2023-03-05T09:50:29;100605.63;;;2.67;100.00
14612;BME280;7392;52.078;11.650;2023-03-05T09:53:04;100601.84;;;2.57;100.00
14612;BME280;7392;52.078;11.650;2023-03-05T09:55:37;100599.75;;;2.46;100.00
14612;BME280;7392;52.078;11.650;2023-03-05T09:58:12;100597.88;;;2.40;100.00
14612;BME280;7392;52.078;11.650;2023-03-05T10:00:44;100589.75;;;2.31;100.00
14612;BME280;7392;52.078;11.650;2023-03-05T10:03:18;100598.34;;;2.27;100.00
14612;BME280;7392;52.078;11.650;2023-03-05T10:06:08;100592.19;;;2.24;100.00
14612;BME280;7392;52.078;11.650;2023-03-05T10:08:48;100589.41;;;2.20;100.00
14612;BME280;7392;52.078;11.650;2023-03-05T10:11:29;100593.63;;;2.15;100.00
14612;BME280;7392;52.078;11.650;2023-03-05T10:14:00;100588.28;;;2.10;100.00
14612;BME280;7392;52.078;11.650;2023-03-05T10:16:49;100588.13;;;2.05;100.00
14612;BME280;7392;52.078;11.650;2023-03-05T10:19:35;100584.44;;;1.99;100.00
14612;BME280;7392;52.078;11.650;2023-03-05T10:22:13;100585.00;;;1.89;100.00
14612;BME280;7392;52.078;11.650;2023-03-05T10:24:54;100581.41;;;1.85;100.00
14612;BME280;7392;52.078;11.650;2023-03-05T10:27:32;100575.25;;;1.84;100.00
14612;BME280;7392;52.078;11.650;2023-03-05T10:30:18;100574.44;;;1.85;100.00
14612;BME280;7392;52.078;11.650;2023-03-05T10:32:58;100580.47;;;1.83;100.00
14612;BME280;7392;52.078;11.650;2023-03-05T10:35:49;100592.44;;;1.75;100.00
14612;BME280;7392;52.078;11.650;2023-03-05T10:38:39;100581.72;;;1.67;100.00
14612;BME280;7392;52.078;11.650;2023-03-05T10:41:22;100575.25;;;1.56;100.00
14612;BME280;7392;52.078;11.650;2023-03-05T10:43:57;100574.19;;;1.49;100.00
14612;BME280;7392;52.078;11.650;2023-03-05T10:46:30;100560.97;;;1.46;100.00
14612;BME280;7392;52.078;11.650;2023-03-05T10:49:04;100561.03;;;1.47;100.00
14612;BME280;7392;52.078;11.650;2023-03-05T10:51:43;100562.91;;;1.52;100.00
14612;BME280;7392;52.078;11.650;2023-03-05T10:54:18;100561.19;;;1.52;100.00
14612;BME280;7392;52.078;11.650;2023-03-05T10:57:02;100557.78;;;1.55;100.00
14612;BME280;7392;52.078;11.650;2023-03-05T10:59:31;100551.91;;;1.63;100.00
14612;BME280;7392;52.078;11.650;2023-03-05T11:02:04;100553.94;;;1.72;100.00
14612;BME280;7392;52.078;11.650;2023-03-05T11:04:37;100553.38;;;1.82;100.00
14612;BME280;7392;52.078;11.650;2023-03-05T11:07:28;100552.84;;;1.94;100.00
14612;BME280;7392;52.078;11.650;2023-03-05T11:10:21;100553.25;;;2.08;100.00
14612;BME280;7392;52.078;11.650;2023-03-05T11:12:49;100547.22;;;2.11;100.00
14612;BME280;7392;52.078;11.650;2023-03-05T11:15:24;100535.06;;;2.13;100.00
14612;BME280;7392;52.078;11.650;2023-03-05T11:18:06;100540.44;;;2.17;100.00
14612;BME280;7392;52.078;11.650;2023-03-05T11:20:36;100535.19;;;2.17;100.00
14612;BME280;7392;52.078;11.650;2023-03-05T11:23:10;100525.63;;;2.19;100.00
14612;BME280;7392;52.078;11.650;2023-03-05T11:25:54;100525.78;;;2.24;100.00
14612;BME280;7392;52.078;11.650;2023-03-05T11:28:27;100532.00;;;2.28;100.00
14612;BME280;7392;52.078;11.650;2023-03-05T11:31:04;100528.56;;;2.30;100.00
14612;BME280;7392;52.078;11.650;2023-03-05T11:33:33;100532.19;;;2.35;100.00
14612;BME280;7392;52.078;11.650;2023-03-05T11:36:12;100529.69;;;2.40;100.00
14612;BME280;7392;52.078;11.650;2023-03-05T11:38:50;100519.41;;;2.46;100.00
14612;BME280;7392;52.078;11.650;2023-03-05T11:41:24;100524.84;;;2.54;100.00
14612;BME280;7392;52.078;11.650;2023-03-05T11:43:53;100513.69;;;2.62;100.00
14612;BME280;7392;52.078;11.650;2023-03-05T11:46:22;100514.31;;;2.86;100.00
14612;BME280;7392;52.078;11.650;2023-03-05T11:48:52;100503.78;;;3.21;100.00
14612;BME280;7392;52.078;11.650;2023-03-05T11:51:25;100499.91;;;3.43;100.00
14612;BME280;7392;52.078;11.650;2023-03-05T11:53:55;100488.66;;;3.47;100.00
14612;BME280;7392;52.078;11.650;2023-03-05T11:56:26;100485.16;;;3.48;100.00
14612;BME280;7392;52.078;11.650;2023-03-05T11:59:00;100488.63;;;3.45;100.00
14612;BME280;7392;52.078;11.650;2023-03-05T12:01:31;100485.88;;;3.41;100.00
14612;BME280;7392;52.078;11.650;2023-03-05T12:03:59;100474.38;;;3.35;100.00
14612;BME280;7392;52.078;11.650;2023-03-05T12:06:33;100475.91;;;3.26;100.00
14612;BME280;7392;52.078;11.650;2023-03-05T12:09:06;100477.53;;;3.21;100.00
14612;BME280;7392;52.078;11.650;2023-03-05T12:11:36;100483.97;;;3.33;100.00
14612;BME280;7392;52.078;11.650;2023-03-05T12:14:08;100473.06;;;3.54;100.00
14612;BME280;7392;52.078;11.650;2023-03-05T12:16:39;100466.56;;;3.78;100.00
14612;BME280;7392;52.078;11.650;2023-03-05T12:19:22;100455.59;;;3.99;100.00
14612;BME280;7392;52.078;11.650;2023-03-05T12:21:56;100454.28;;;4.21;100.00
14612;BME280;7392;52.078;11.650;2023-03-05T12:24:35;100439.97;;;4.54;100.00
14612;BME280;7392;52.078;11.650;2023-03-05T12:27:09;100424.56;;;4.76;100.00
14612;BME280;7392;52.078;11.650;2023-03-05T12:29:47;100426.38;;;4.81;100.00
14612;BME280;7392;52.078;11.650;2023-03-05T12:35:35;100420.41;;;4.92;93.80
14612;BME280;7392;52.078;11.650;2023-03-05T12:38:29;100420.47;;;4.96;91.77
14612;BME280;7392;52.078;11.650;2023-03-05T12:44:15;100415.22;;;4.96;85.90
14612;BME280;7392;52.078;11.650;2023-03-05T12:46:44;100415.28;;;4.99;85.97
14612;BME280;7392;52.078;11.650;2023-03-05T12:49:36;100414.44;;;5.03;86.08
14612;BME280;7392;52.078;11.650;2023-03-05T12:52:12;100410.03;;;5.01;85.16
14612;BME280;7392;52.078;11.650;2023-03-05T12:54:56;100407.31;;;4.96;84.12
14612;BME280;7392;52.078;11.650;2023-03-05T12:57:28;100400.34;;;5.00;84.77
14612;BME280;7392;52.078;11.650;2023-03-05T12:59:58;100390.84;;;5.10;85.30
14612;BME280;7392;52.078;11.650;2023-03-05T13:02:34;100389.97;;;5.09;83.55
14612;BME280;7392;52.078;11.650;2023-03-05T13:05:06;100391.72;;;5.10;83.64
14612;BME280;7392;52.078;11.650;2023-03-05T13:07:41;100384.75;;;5.14;84.66
14612;BME280;7392;52.078;11.650;2023-03-05T13:10:22;100377.72;;;5.11;82.62
14612;BME280;7392;52.078;11.650;2023-03-05T13:12:51;100375.06;;;5.10;83.47
14612;BME280;7392;52.078;11.650;2023-03-05T13:15:21;100373.22;;;5.02;80.57
14612;BME280;7392;52.078;11.650;2023-03-05T13:17:52;100363.41;;;4.92;79.16
14612;BME280;7392;52.078;11.650;2023-03-05T13:20:29;100374.63;;;4.80;78.46